sensor_id;sensor_type;location;lat;lon;timestamp;P1;durP1;ratioP1;P2;durP2;ratioP2
73670;SDS011;61968;48.178;11.566;2022-12-07T00:01:07;8.85;;;5.13;;
73670;SDS011;61968;48.178;11.566;2022-12-07T00:03:36;8.90;;;5.55;;
73670;SDS011;61968;48.178;11.566;2022-12-07T00:06:05;9.75;;;5.43;;
73670;SDS011;61968;48.178;11.566;2022-12-07T00:08:34;6.90;;;4.85;;
73670;SDS011;61968;48.178;11.566;2022-12-07T00:11:01;11.25;;;4.82;;
73670;SDS011;61968;48.178;11.566;2022-12-07T00:13:29;8.25;;;5.18;;
73670;SDS011;61968;48.178;11.566;2022-12-07T00:15:59;8.00;;;4.40;;
73670;SDS011;61968;48.178;11.566;2022-12-07T00:18:26;9.52;;;5.65;;
73670;SDS011;61968;48.178;11.566;2022-12-07T00:20:53;9.07;;;5.10;;
73670;SDS011;61968;48.178;11.566;2022-12-07T00:23:26;7.03;;;4.25;;
73670;SDS011;61968;48.178;11.566;2022-12-07T00:25:53;6.85;;;5.03;;
73670;SDS011;61968;48.178;11.566;2022-12-07T00:30:46;8.73;;;4.53;;
73670;SDS011;61968;48.178;11.566;2022-12-07T00:33:13;9.27;;;4.78;;
73670;SDS011;61968;48.178;11.566;2022-12-07T00:35:40;10.63;;;5.07;;
73670;SDS011;61968;48.178;11.566;2022-12-07T00:38:06;10.40;;;5.45;;
73670;SDS011;61968;48.178;11.566;2022-12-07T00:40:34;7.97;;;5.22;;
73670;SDS011;61968;48.178;11.566;2022-12-07T00:43:00;8.77;;;5.53;;
73670;SDS011;61968;48.178;11.566;2022-12-07T00:45:27;6.60;;;4.85;;
73670;SDS011;61968;48.178;11.566;2022-12-07T00:50:20;6.90;;;4.07;;
73670;SDS011;61968;48.178;11.566;2022-12-07T00:52:46;7.55;;;4.00;;
73670;SDS011;61968;48.178;11.566;2022-12-07T00:55:13;8.85;;;4.60;;
73670;SDS011;61968;48.178;11.566;2022-12-07T01:00:08;8.05;;;4.25;;
73670;SDS011;61968;48.178;11.566;2022-12-07T01:02:35;7.80;;;3.88;;
73670;SDS011;61968;48.178;11.566;2022-12-07T01:05:01;6.45;;;4.07;;
73670;SDS011;61968;48.178;11.566;2022-12-07T01:09:54;6.35;;;4.22;;
73670;SDS011;61968;48.178;11.566;2022-12-07T01:12:21;6.78;;;3.83;;
73670;SDS011;61968;48.178;11.566;2022-12-07T01:14:49;7.07;;;4.10;;
73670;SDS011;61968;48.178;11.566;2022-12-07T01:17:15;7.30;;;4.53;;
73670;SDS011;61968;48.178;11.566;2022-12-07T01:19:42;7.60;;;4.20;;
73670;SDS011;61968;48.178;11.566;2022-12-07T01:22:08;6.60;;;4.15;;
73670;SDS011;61968;48.178;11.566;2022-12-07T01:24:35;7.03;;;4.43;;
73670;SDS011;61968;48.178;11.566;2022-12-07T01:27:02;6.15;;;3.70;;
73670;SDS011;61968;48.178;11.566;2022-12-07T01:31:56;9.63;;;4.85;;
73670;SDS011;61968;48.178;11.566;2022-12-07T01:34:22;6.20;;;4.03;;
73670;SDS011;61968;48.178;11.566;2022-12-07T01:36:49;7.50;;;4.40;;
73670;SDS011;61968;48.178;11.566;2022-12-07T01:39:15;6.90;;;3.92;;
73670;SDS011;61968;48.178;11.566;2022-12-07T01:41:42;6.47;;;4.40;;
73670;SDS011;61968;48.178;11.566;2022-12-07T01:46:37;5.68;;;3.75;;
73670;SDS011;61968;48.178;11.566;2022-12-07T01:49:08;8.07;;;4.85;;
73670;SDS011;61968;48.178;11.566;2022-12-07T01:51:38;7.47;;;4.70;;
73670;SDS011;61968;48.178;11.566;2022-12-07T01:54:08;6.90;;;4.53;;
73670;SDS011;61968;48.178;11.566;2022-12-07T01:56:38;6.60;;;3.70;;
73670;SDS011;61968;48.178;11.566;2022-12-07T01:59:09;8.65;;;4.18;;
73670;SDS011;61968;48.178;11.566;2022-12-07T02:01:36;7.72;;;4.05;;
73670;SDS011;61968;48.178;11.566;2022-12-07T02:04:03;7.85;;;4.65;;
73670;SDS011;61968;48.178;11.566;2022-12-07T02:06:33;9.82;;;5.40;;
73670;SDS011;61968;48.178;11.566;2022-12-07T02:09:02;7.95;;;5.40;;
73670;SDS011;61968;48.178;11.566;2022-12-07T02:11:29;7.15;;;5.07;;
73670;SDS011;61968;48.178;11.566;2022-12-07T02:13:56;7.78;;;4.90;;
73670;SDS011;61968;48.178;11.566;2022-12-07T02:16:25;8.07;;;5.05;;
73670;SDS011;61968;48.178;11.566;2022-12-07T02:19:01;8.23;;;4.32;;
73670;SDS011;61968;48.178;11.566;2022-12-07T02:21:52;8.75;;;4.05;;
73670;SDS011;61968;48.178;11.566;2022-12-07T02:24:31;6.80;;;3.65;;
73670;SDS011;61968;48.178;11.566;2022-12-07T02:30:06;5.25;;;4.00;;
73670;SDS011;61968;48.178;11.566;2022-12-07T02:32:45;6.43;;;3.72;;
73670;SDS011;61968;48.178;11.566;2022-12-07T02:35:19;6.07;;;4.85;;
73670;SDS011;61968;48.178;11.566;2022-12-07T02:37:55;8.55;;;4.20;;
73670;SDS011;61968;48.178;11.566;2022-12-07T02:40:29;6.10;;;4.38;;
73670;SDS011;61968;48.178;11.566;2022-12-07T02:43:01;5.85;;;4.05;;
73670;SDS011;61968;48.178;11.566;2022-12-07T02:45:34;9.63;;;4.97;;
73670;SDS011;61968;48.178;11.566;2022-12-07T02:48:02;9.68;;;4.65;;
73670;SDS011;61968;48.178;11.566;2022-12-07T02:50:32;10.73;;;5.45;;
73670;SDS011;61968;48.178;11.566;2022-12-07T02:52:59;7.63;;;5.10;;
73670;SDS011;61968;48.178;11.566;2022-12-07T02:55:26;8.40;;;5.25;;
73670;SDS011;61968;48.178;11.566;2022-12-07T03:00:52;8.13;;;4.25;;
73670;SDS011;61968;48.178;11.566;2022-12-07T03:03:26;7.35;;;5.35;;
73670;SDS011;61968;48.178;11.566;2022-12-07T03:05:59;9.23;;;5.40;;
73670;SDS011;61968;48.178;11.566;2022-12-07T03:08:35;10.48;;;5.30;;
73670;SDS011;61968;48.178;11.566;2022-12-07T03:11:08;6.65;;;4.10;;
73670;SDS011;61968;48.178;11.566;2022-12-07T03:13:39;6.07;;;4.00;;
73670;SDS011;61968;48.178;11.566;2022-12-07T03:16:12;7.47;;;5.13;;
73670;SDS011;61968;48.178;11.566;2022-12-07T03:18:50;7.13;;;4.05;;
73670;SDS011;61968;48.178;11.566;2022-12-07T03:23:51;8.27;;;4.38;;
73670;SDS011;61968;48.178;11.566;2022-12-07T03:26:23;6.30;;;4.45;;
73670;SDS011;61968;48.178;11.566;2022-12-07T03:28:55;8.13;;;4.40;;
73670;SDS011;61968;48.178;11.566;2022-12-07T03:31:28;7.13;;;4.38;;
73670;SDS011;61968;48.178;11.566;2022-12-07T03:34:15;7.32;;;4.82;;
73670;SDS011;61968;48.178;11.566;2022-12-07T03:36:52;6.18;;;3.95;;
73670;SDS011;61968;48.178;11.566;2022-12-07T03:39:26;9.68;;;5.70;;
73670;SDS011;61968;48.178;11.566;2022-12-07T03:41:57;7.88;;;4.47;;
73670;SDS011;61968;48.178;11.566;2022-12-07T03:44:26;7.03;;;4.25;;
73670;SDS011;61968;48.178;11.566;2022-12-07T03:46:58;8.93;;;5.28;;
73670;SDS011;61968;48.178;11.566;2022-12-07T03:49:30;8.55;;;4.72;;
73670;SDS011;61968;48.178;11.566;2022-12-07T03:52:12;7.00;;;4.68;;
73670;SDS011;61968;48.178;11.566;2022-12-07T03:54:48;8.73;;;5.20;;
73670;SDS011;61968;48.178;11.566;2022-12-07T03:57:19;10.32;;;5.28;;
73670;SDS011;61968;48.178;11.566;2022-12-07T03:59:47;7.18;;;4.32;;
73670;SDS011;61968;48.178;11.566;2022-12-07T04:02:16;8.63;;;5.07;;
73670;SDS011;61968;48.178;11.566;2022-12-07T04:04:43;7.03;;;4.88;;
73670;SDS011;61968;48.178;11.566;2022-12-07T04:07:10;8.07;;;5.03;;
73670;SDS011;61968;48.178;11.566;2022-12-07T04:09:37;6.95;;;4.72;;
73670;SDS011;61968;48.178;11.566;2022-12-07T04:14:31;10.43;;;5.00;;
73670;SDS011;61968;48.178;11.566;2022-12-07T04:16:58;13.50;;;6.25;;
73670;SDS011;61968;48.178;11.566;2022-12-07T04:19:27;14.07;;;8.27;;
73670;SDS011;61968;48.178;11.566;2022-12-07T04:21:54;13.27;;;7.40;;
73670;SDS011;61968;48.178;11.566;2022-12-07T04:26:48;13.40;;;7.70;;
73670;SDS011;61968;48.178;11.566;2022-12-07T04:29:14;9.50;;;6.40;;
73670;SDS011;61968;48.178;11.566;2022-12-07T04:31:42;12.30;;;6.78;;
73670;SDS011;61968;48.178;11.566;2022-12-07T04:34:09;12.88;;;7.30;;
73670;SDS011;61968;48.178;11.566;2022-12-07T04:36:37;9.32;;;6.35;;
73670;SDS011;61968;48.178;11.566;2022-12-07T04:39:05;11.75;;;6.35;;
73670;SDS011;61968;48.178;11.566;2022-12-07T04:41:33;10.05;;;6.05;;
73670;SDS011;61968;48.178;11.566;2022-12-07T04:46:27;10.07;;;5.03;;
73670;SDS011;61968;48.178;11.566;2022-12-07T04:48:55;8.98;;;4.40;;
73670;SDS011;61968;48.178;11.566;2022-12-07T04:51:23;8.52;;;4.93;;
73670;SDS011;61968;48.178;11.566;2022-12-07T04:53:52;7.53;;;4.95;;
73670;SDS011;61968;48.178;11.566;2022-12-07T04:56:20;6.93;;;4.35;;
73670;SDS011;61968;48.178;11.566;2022-12-07T04:58:48;7.75;;;4.57;;
73670;SDS011;61968;48.178;11.566;2022-12-07T05:01:15;8.20;;;5.53;;
73670;SDS011;61968;48.178;11.566;2022-12-07T05:03:43;7.97;;;5.15;;
73670;SDS011;61968;48.178;11.566;2022-12-07T05:08:37;8.38;;;4.82;;
73670;SDS011;61968;48.178;11.566;2022-12-07T05:11:05;8.15;;;4.82;;
73670;SDS011;61968;48.178;11.566;2022-12-07T05:13:32;8.15;;;5.03;;
73670;SDS011;61968;48.178;11.566;2022-12-07T05:15:59;6.82;;;5.10;;
73670;SDS011;61968;48.178;11.566;2022-12-07T05:18:26;7.65;;;5.43;;
73670;SDS011;61968;48.178;11.566;2022-12-07T05:20:53;9.10;;;4.40;;
73670;SDS011;61968;48.178;11.566;2022-12-07T05:23:19;7.82;;;5.82;;
73670;SDS011;61968;48.178;11.566;2022-12-07T05:25:46;7.32;;;4.60;;
73670;SDS011;61968;48.178;11.566;2022-12-07T05:28:14;7.40;;;4.72;;
73670;SDS011;61968;48.178;11.566;2022-12-07T05:30:41;8.27;;;4.47;;
73670;SDS011;61968;48.178;11.566;2022-12-07T05:33:07;8.70;;;4.97;;
73670;SDS011;61968;48.178;11.566;2022-12-07T05:35:34;10.25;;;4.90;;
73670;SDS011;61968;48.178;11.566;2022-12-07T05:38:02;8.07;;;5.13;;
73670;SDS011;61968;48.178;11.566;2022-12-07T05:40:29;12.82;;;7.47;;
73670;SDS011;61968;48.178;11.566;2022-12-07T05:42:55;7.20;;;4.88;;
73670;SDS011;61968;48.178;11.566;2022-12-07T05:45:23;8.82;;;5.00;;
73670;SDS011;61968;48.178;11.566;2022-12-07T05:47:50;8.50;;;5.32;;
73670;SDS011;61968;48.178;11.566;2022-12-07T05:50:16;7.72;;;4.93;;
73670;SDS011;61968;48.178;11.566;2022-12-07T05:52:43;7.18;;;5.15;;
73670;SDS011;61968;48.178;11.566;2022-12-07T05:55:09;8.57;;;5.50;;
73670;SDS011;61968;48.178;11.566;2022-12-07T05:57:36;11.15;;;5.70;;
73670;SDS011;61968;48.178;11.566;2022-12-07T06:00:03;11.45;;;6.30;;
73670;SDS011;61968;48.178;11.566;2022-12-07T06:02:31;10.02;;;6.18;;
73670;SDS011;61968;48.178;11.566;2022-12-07T06:04:57;10.95;;;6.65;;
73670;SDS011;61968;48.178;11.566;2022-12-07T06:07:24;8.55;;;5.65;;
73670;SDS011;61968;48.178;11.566;2022-12-07T06:09:50;9.98;;;5.63;;
73670;SDS011;61968;48.178;11.566;2022-12-07T06:15:03;11.40;;;6.25;;
73670;SDS011;61968;48.178;11.566;2022-12-07T06:17:31;10.82;;;6.55;;
73670;SDS011;61968;48.178;11.566;2022-12-07T06:19:58;10.32;;;6.18;;
73670;SDS011;61968;48.178;11.566;2022-12-07T06:22:24;10.50;;;6.45;;
73670;SDS011;61968;48.178;11.566;2022-12-07T06:24:51;9.27;;;5.10;;
73670;SDS011;61968;48.178;11.566;2022-12-07T06:27:17;7.75;;;5.47;;
73670;SDS011;61968;48.178;11.566;2022-12-07T06:29:44;9.88;;;6.28;;
73670;SDS011;61968;48.178;11.566;2022-12-07T06:32:10;9.05;;;5.07;;
73670;SDS011;61968;48.178;11.566;2022-12-07T06:34:38;8.18;;;4.63;;
73670;SDS011;61968;48.178;11.566;2022-12-07T06:37:05;7.38;;;4.55;;
73670;SDS011;61968;48.178;11.566;2022-12-07T06:39:32;7.70;;;4.82;;
73670;SDS011;61968;48.178;11.566;2022-12-07T06:41:58;10.77;;;5.85;;
73670;SDS011;61968;48.178;11.566;2022-12-07T06:44:25;10.38;;;6.18;;
73670;SDS011;61968;48.178;11.566;2022-12-07T06:46:52;10.63;;;6.25;;
73670;SDS011;61968;48.178;11.566;2022-12-07T06:49:20;9.55;;;4.80;;
73670;SDS011;61968;48.178;11.566;2022-12-07T06:51:47;13.38;;;5.53;;
73670;SDS011;61968;48.178;11.566;2022-12-07T06:54:14;8.80;;;4.72;;
73670;SDS011;61968;48.178;11.566;2022-12-07T06:56:41;6.88;;;4.20;;
73670;SDS011;61968;48.178;11.566;2022-12-07T07:01:35;10.23;;;5.82;;
73670;SDS011;61968;48.178;11.566;2022-12-07T07:04:02;5.47;;;4.07;;
73670;SDS011;61968;48.178;11.566;2022-12-07T07:06:29;10.55;;;5.22;;
73670;SDS011;61968;48.178;11.566;2022-12-07T07:08:57;11.90;;;5.75;;
73670;SDS011;61968;48.178;11.566;2022-12-07T07:11:23;11.45;;;5.85;;
73670;SDS011;61968;48.178;11.566;2022-12-07T07:13:50;9.13;;;4.60;;
73670;SDS011;61968;48.178;11.566;2022-12-07T07:16:16;8.40;;;5.28;;
73670;SDS011;61968;48.178;11.566;2022-12-07T07:18:43;7.55;;;4.88;;
73670;SDS011;61968;48.178;11.566;2022-12-07T07:21:09;11.65;;;6.22;;
73670;SDS011;61968;48.178;11.566;2022-12-07T07:23:36;7.93;;;6.07;;
73670;SDS011;61968;48.178;11.566;2022-12-07T07:26:04;9.80;;;5.28;;
73670;SDS011;61968;48.178;11.566;2022-12-07T07:28:30;8.38;;;5.50;;
73670;SDS011;61968;48.178;11.566;2022-12-07T07:33:23;10.48;;;5.28;;
73670;SDS011;61968;48.178;11.566;2022-12-07T07:35:50;7.57;;;5.15;;
73670;SDS011;61968;48.178;11.566;2022-12-07T07:38:16;13.95;;;7.07;;
73670;SDS011;61968;48.178;11.566;2022-12-07T07:40:43;7.57;;;5.22;;
73670;SDS011;61968;48.178;11.566;2022-12-07T07:43:11;7.93;;;5.00;;
73670;SDS011;61968;48.178;11.566;2022-12-07T07:45:37;8.95;;;5.65;;
73670;SDS011;61968;48.178;11.566;2022-12-07T07:48:04;9.55;;;5.07;;
73670;SDS011;61968;48.178;11.566;2022-12-07T07:50:30;11.23;;;6.05;;
73670;SDS011;61968;48.178;11.566;2022-12-07T07:52:57;9.80;;;5.32;;
73670;SDS011;61968;48.178;11.566;2022-12-07T07:57:50;11.30;;;6.57;;
73670;SDS011;61968;48.178;11.566;2022-12-07T08:00:18;8.35;;;5.03;;
73670;SDS011;61968;48.178;11.566;2022-12-07T08:02:45;11.38;;;6.25;;
73670;SDS011;61968;48.178;11.566;2022-12-07T08:07:39;9.60;;;5.43;;
73670;SDS011;61968;48.178;11.566;2022-12-07T08:10:06;11.13;;;6.45;;
73670;SDS011;61968;48.178;11.566;2022-12-07T08:12:35;15.05;;;7.15;;
73670;SDS011;61968;48.178;11.566;2022-12-07T08:15:02;10.43;;;5.45;;
73670;SDS011;61968;48.178;11.566;2022-12-07T08:17:31;13.82;;;6.63;;
73670;SDS011;61968;48.178;11.566;2022-12-07T08:19:58;13.18;;;8.10;;
73670;SDS011;61968;48.178;11.566;2022-12-07T08:22:25;13.77;;;7.10;;
73670;SDS011;61968;48.178;11.566;2022-12-07T08:24:51;13.32;;;7.32;;
73670;SDS011;61968;48.178;11.566;2022-12-07T08:27:18;11.90;;;5.82;;
73670;SDS011;61968;48.178;11.566;2022-12-07T08:29:44;10.05;;;5.63;;
73670;SDS011;61968;48.178;11.566;2022-12-07T08:32:11;10.73;;;6.72;;
73670;SDS011;61968;48.178;11.566;2022-12-07T08:34:39;13.45;;;6.60;;
73670;SDS011;61968;48.178;11.566;2022-12-07T08:37:05;11.13;;;6.18;;
73670;SDS011;61968;48.178;11.566;2022-12-07T08:39:32;13.00;;;6.57;;
73670;SDS011;61968;48.178;11.566;2022-12-07T08:41:58;11.82;;;6.40;;
73670;SDS011;61968;48.178;11.566;2022-12-07T08:44:25;11.95;;;6.22;;
73670;SDS011;61968;48.178;11.566;2022-12-07T08:46:52;11.95;;;6.57;;
73670;SDS011;61968;48.178;11.566;2022-12-07T08:49:22;12.70;;;6.47;;
73670;SDS011;61968;48.178;11.566;2022-12-07T08:51:54;11.02;;;7.13;;
73670;SDS011;61968;48.178;11.566;2022-12-07T08:54:21;12.15;;;6.32;;
73670;SDS011;61968;48.178;11.566;2022-12-07T08:56:48;10.70;;;6.28;;
73670;SDS011;61968;48.178;11.566;2022-12-07T08:59:17;11.23;;;5.82;;
73670;SDS011;61968;48.178;11.566;2022-12-07T09:01:45;9.88;;;5.82;;
73670;SDS011;61968;48.178;11.566;2022-12-07T09:04:11;12.88;;;5.65;;
73670;SDS011;61968;48.178;11.566;2022-12-07T09:06:38;10.85;;;6.35;;
73670;SDS011;61968;48.178;11.566;2022-12-07T09:09:06;12.48;;;6.57;;
73670;SDS011;61968;48.178;11.566;2022-12-07T09:11:35;12.63;;;6.22;;
73670;SDS011;61968;48.178;11.566;2022-12-07T09:16:30;10.20;;;5.53;;
73670;SDS011;61968;48.178;11.566;2022-12-07T09:18:56;10.50;;;6.32;;
73670;SDS011;61968;48.178;11.566;2022-12-07T09:21:23;11.10;;;5.88;;
73670;SDS011;61968;48.178;11.566;2022-12-07T09:23:49;10.95;;;5.03;;
73670;SDS011;61968;48.178;11.566;2022-12-07T09:26:17;11.98;;;5.57;;
73670;SDS011;61968;48.178;11.566;2022-12-07T09:28:44;12.00;;;5.03;;
73670;SDS011;61968;48.178;11.566;2022-12-07T09:33:37;11.05;;;5.63;;
73670;SDS011;61968;48.178;11.566;2022-12-07T09:36:04;9.65;;;4.65;;
73670;SDS011;61968;48.178;11.566;2022-12-07T09:38:31;14.32;;;7.55;;
73670;SDS011;61968;48.178;11.566;2022-12-07T09:43:31;10.07;;;5.97;;
73670;SDS011;61968;48.178;11.566;2022-12-07T09:45:57;12.13;;;6.22;;
73670;SDS011;61968;48.178;11.566;2022-12-07T09:48:25;8.90;;;5.68;;
73670;SDS011;61968;48.178;11.566;2022-12-07T09:50:57;13.60;;;5.75;;
73670;SDS011;61968;48.178;11.566;2022-12-07T09:53:25;10.02;;;5.32;;
73670;SDS011;61968;48.178;11.566;2022-12-07T09:55:54;8.55;;;5.10;;
73670;SDS011;61968;48.178;11.566;2022-12-07T09:58:22;14.50;;;6.00;;
73670;SDS011;61968;48.178;11.566;2022-12-07T10:00:53;9.63;;;5.43;;
73670;SDS011;61968;48.178;11.566;2022-12-07T10:03:23;9.15;;;5.57;;
73670;SDS011;61968;48.178;11.566;2022-12-07T10:05:50;9.88;;;5.80;;
73670;SDS011;61968;48.178;11.566;2022-12-07T10:08:18;11.10;;;6.00;;
73670;SDS011;61968;48.178;11.566;2022-12-07T10:10:46;9.85;;;5.25;;
73670;SDS011;61968;48.178;11.566;2022-12-07T10:13:18;9.00;;;5.30;;
73670;SDS011;61968;48.178;11.566;2022-12-07T10:15:47;8.27;;;5.35;;
73670;SDS011;61968;48.178;11.566;2022-12-07T10:18:21;9.80;;;5.50;;
73670;SDS011;61968;48.178;11.566;2022-12-07T10:20:59;8.10;;;5.25;;
73670;SDS011;61968;48.178;11.566;2022-12-07T10:23:32;8.05;;;5.00;;
73670;SDS011;61968;48.178;11.566;2022-12-07T10:26:00;10.93;;;5.65;;
73670;SDS011;61968;48.178;11.566;2022-12-07T10:28:45;9.43;;;5.18;;
73670;SDS011;61968;48.178;11.566;2022-12-07T10:31:15;11.02;;;4.90;;
73670;SDS011;61968;48.178;11.566;2022-12-07T10:33:49;11.05;;;5.88;;
73670;SDS011;61968;48.178;11.566;2022-12-07T10:36:19;14.73;;;6.47;;
73670;SDS011;61968;48.178;11.566;2022-12-07T10:38:49;12.52;;;5.10;;
73670;SDS011;61968;48.178;11.566;2022-12-07T10:41:17;14.10;;;6.15;;
73670;SDS011;61968;48.178;11.566;2022-12-07T10:43:51;8.23;;;5.70;;
73670;SDS011;61968;48.178;11.566;2022-12-07T10:46:26;13.07;;;5.38;;
73670;SDS011;61968;48.178;11.566;2022-12-07T10:49:23;7.57;;;5.30;;
73670;SDS011;61968;48.178;11.566;2022-12-07T10:52:03;8.07;;;4.47;;
73670;SDS011;61968;48.178;11.566;2022-12-07T10:54:39;8.40;;;4.57;;
73670;SDS011;61968;48.178;11.566;2022-12-07T10:57:21;7.78;;;4.35;;
73670;SDS011;61968;48.178;11.566;2022-12-07T11:00:00;7.90;;;4.38;;
73670;SDS011;61968;48.178;11.566;2022-12-07T11:02:40;7.47;;;4.28;;
73670;SDS011;61968;48.178;11.566;2022-12-07T11:05:24;6.55;;;4.03;;
73670;SDS011;61968;48.178;11.566;2022-12-07T11:08:00;6.13;;;3.72;;
73670;SDS011;61968;48.178;11.566;2022-12-07T11:13:15;4.88;;;3.60;;
73670;SDS011;61968;48.178;11.566;2022-12-07T11:15:52;6.63;;;3.78;;
73670;SDS011;61968;48.178;11.566;2022-12-07T11:18:28;6.28;;;3.40;;
73670;SDS011;61968;48.178;11.566;2022-12-07T11:21:05;6.65;;;3.92;;
73670;SDS011;61968;48.178;11.566;2022-12-07T11:23:41;6.50;;;3.95;;
73670;SDS011;61968;48.178;11.566;2022-12-07T11:26:16;9.18;;;3.97;;
73670;SDS011;61968;48.178;11.566;2022-12-07T11:28:59;7.90;;;3.10;;
73670;SDS011;61968;48.178;11.566;2022-12-07T11:31:38;8.65;;;3.83;;
73670;SDS011;61968;48.178;11.566;2022-12-07T11:34:24;5.72;;;3.53;;
73670;SDS011;61968;48.178;11.566;2022-12-07T11:36:59;6.53;;;3.63;;
73670;SDS011;61968;48.178;11.566;2022-12-07T11:39:30;5.63;;;3.22;;
73670;SDS011;61968;48.178;11.566;2022-12-07T11:42:01;12.85;;;4.88;;
73670;SDS011;61968;48.178;11.566;2022-12-07T11:44:33;5.45;;;3.25;;
73670;SDS011;61968;48.178;11.566;2022-12-07T11:47:07;7.90;;;3.90;;
73670;SDS011;61968;48.178;11.566;2022-12-07T11:49:41;7.00;;;4.00;;
73670;SDS011;61968;48.178;11.566;2022-12-07T11:52:16;7.60;;;4.47;;
73670;SDS011;61968;48.178;11.566;2022-12-07T11:54:48;6.28;;;3.72;;
73670;SDS011;61968;48.178;11.566;2022-12-07T11:57:20;6.10;;;3.75;;
73670;SDS011;61968;48.178;11.566;2022-12-07T11:59:52;6.78;;;3.97;;
73670;SDS011;61968;48.178;11.566;2022-12-07T12:02:23;7.68;;;3.80;;
73670;SDS011;61968;48.178;11.566;2022-12-07T12:04:58;7.10;;;3.63;;
73670;SDS011;61968;48.178;11.566;2022-12-07T12:07:33;7.13;;;3.65;;
73670;SDS011;61968;48.178;11.566;2022-12-07T12:10:02;10.88;;;5.60;;
73670;SDS011;61968;48.178;11.566;2022-12-07T12:12:45;10.10;;;3.97;;
73670;SDS011;61968;48.178;11.566;2022-12-07T12:15:31;7.97;;;3.88;;
73670;SDS011;61968;48.178;11.566;2022-12-07T12:18:23;8.05;;;3.95;;
73670;SDS011;61968;48.178;11.566;2022-12-07T12:21:03;7.20;;;4.53;;
73670;SDS011;61968;48.178;11.566;2022-12-07T12:23:37;6.20;;;3.72;;
73670;SDS011;61968;48.178;11.566;2022-12-07T12:26:07;6.35;;;3.90;;
73670;SDS011;61968;48.178;11.566;2022-12-07T12:28:48;11.20;;;3.60;;
73670;SDS011;61968;48.178;11.566;2022-12-07T12:31:29;8.63;;;4.38;;
73670;SDS011;61968;48.178;11.566;2022-12-07T12:34:00;8.45;;;5.15;;
73670;SDS011;61968;48.178;11.566;2022-12-07T12:36:43;9.52;;;4.38;;
73670;SDS011;61968;48.178;11.566;2022-12-07T12:39:12;5.80;;;3.45;;
73670;SDS011;61968;48.178;11.566;2022-12-07T12:41:54;8.38;;;4.03;;
73670;SDS011;61968;48.178;11.566;2022-12-07T12:50:26;8.25;;;3.40;;
73670;SDS011;61968;48.178;11.566;2022-12-07T12:52:55;5.88;;;3.65;;
73670;SDS011;61968;48.178;11.566;2022-12-07T13:01:48;8.35;;;3.67;;
73670;SDS011;61968;48.178;11.566;2022-12-07T13:04:27;7.10;;;3.72;;
73670;SDS011;61968;48.178;11.566;2022-12-07T13:09:28;10.25;;;4.38;;
73670;SDS011;61968;48.178;11.566;2022-12-07T13:12:00;8.57;;;4.30;;
73670;SDS011;61968;48.178;11.566;2022-12-07T13:23:16;8.93;;;4.95;;
73670;SDS011;61968;48.178;11.566;2022-12-07T13:25:48;7.43;;;4.35;;
73670;SDS011;61968;48.178;11.566;2022-12-07T13:28:22;9.57;;;4.47;;
73670;SDS011;61968;48.178;11.566;2022-12-07T13:31:00;7.60;;;4.07;;
73670;SDS011;61968;48.178;11.566;2022-12-07T13:33:35;10.05;;;4.47;;
73670;SDS011;61968;48.178;11.566;2022-12-07T13:36:02;33.90;;;13.07;;
73670;SDS011;61968;48.178;11.566;2022-12-07T13:38:29;58.15;;;20.20;;
73670;SDS011;61968;48.178;11.566;2022-12-07T13:41:01;21.55;;;9.45;;
73670;SDS011;61968;48.178;11.566;2022-12-07T13:43:44;8.00;;;3.50;;
73670;SDS011;61968;48.178;11.566;2022-12-07T13:46:11;8.25;;;3.65;;
73670;SDS011;61968;48.178;11.566;2022-12-07T13:48:43;5.72;;;3.58;;
73670;SDS011;61968;48.178;11.566;2022-12-07T13:51:16;7.93;;;4.45;;
73670;SDS011;61968;48.178;11.566;2022-12-07T13:53:48;7.25;;;4.15;;
73670;SDS011;61968;48.178;11.566;2022-12-07T13:56:15;9.60;;;4.75;;
73670;SDS011;61968;48.178;11.566;2022-12-07T13:58:43;12.43;;;5.85;;
73670;SDS011;61968;48.178;11.566;2022-12-07T14:01:10;6.28;;;3.75;;
73670;SDS011;61968;48.178;11.566;2022-12-07T14:03:38;8.20;;;4.43;;
73670;SDS011;61968;48.178;11.566;2022-12-07T14:08:33;8.57;;;4.43;;
73670;SDS011;61968;48.178;11.566;2022-12-07T14:13:28;9.50;;;4.00;;
73670;SDS011;61968;48.178;11.566;2022-12-07T14:16:00;9.50;;;4.50;;
73670;SDS011;61968;48.178;11.566;2022-12-07T14:18:28;7.38;;;4.50;;
73670;SDS011;61968;48.178;11.566;2022-12-07T14:21:03;9.75;;;4.22;;
73670;SDS011;61968;48.178;11.566;2022-12-07T14:23:31;7.00;;;4.40;;
73670;SDS011;61968;48.178;11.566;2022-12-07T14:28:33;9.20;;;4.55;;
73670;SDS011;61968;48.178;11.566;2022-12-07T14:31:03;10.00;;;4.65;;
73670;SDS011;61968;48.178;11.566;2022-12-07T14:33:36;8.98;;;4.10;;
73670;SDS011;61968;48.178;11.566;2022-12-07T14:36:03;8.30;;;4.45;;
73670;SDS011;61968;48.178;11.566;2022-12-07T14:38:30;15.60;;;7.15;;
73670;SDS011;61968;48.178;11.566;2022-12-07T14:40:56;11.50;;;5.30;;
73670;SDS011;61968;48.178;11.566;2022-12-07T14:43:44;5.57;;;4.45;;
73670;SDS011;61968;48.178;11.566;2022-12-07T14:46:12;7.53;;;3.45;;
73670;SDS011;61968;48.178;11.566;2022-12-07T14:48:38;7.90;;;4.10;;
73670;SDS011;61968;48.178;11.566;2022-12-07T14:53:31;7.55;;;3.72;;
73670;SDS011;61968;48.178;11.566;2022-12-07T14:56:01;8.55;;;3.80;;
73670;SDS011;61968;48.178;11.566;2022-12-07T14:58:30;6.55;;;3.30;;
73670;SDS011;61968;48.178;11.566;2022-12-07T15:00:57;6.35;;;2.88;;
73670;SDS011;61968;48.178;11.566;2022-12-07T15:05:51;5.55;;;2.85;;
73670;SDS011;61968;48.178;11.566;2022-12-07T15:10:44;7.65;;;3.15;;
73670;SDS011;61968;48.178;11.566;2022-12-07T15:13:11;9.40;;;4.20;;
73670;SDS011;61968;48.178;11.566;2022-12-07T15:15:55;17.80;;;5.20;;
73670;SDS011;61968;48.178;11.566;2022-12-07T15:18:22;7.35;;;4.45;;
73670;SDS011;61968;48.178;11.566;2022-12-07T15:20:50;9.45;;;4.53;;
73670;SDS011;61968;48.178;11.566;2022-12-07T15:23:17;6.97;;;4.03;;
73670;SDS011;61968;48.178;11.566;2022-12-07T15:25:44;8.93;;;4.78;;
73670;SDS011;61968;48.178;11.566;2022-12-07T15:28:12;11.98;;;4.53;;
73670;SDS011;61968;48.178;11.566;2022-12-07T15:30:40;7.70;;;4.78;;
73670;SDS011;61968;48.178;11.566;2022-12-07T15:33:08;9.25;;;4.63;;
73670;SDS011;61968;48.178;11.566;2022-12-07T15:35:37;6.78;;;3.65;;
73670;SDS011;61968;48.178;11.566;2022-12-07T15:38:06;8.93;;;4.45;;
73670;SDS011;61968;48.178;11.566;2022-12-07T15:40:33;10.18;;;4.90;;
73670;SDS011;61968;48.178;11.566;2022-12-07T15:42:59;10.63;;;4.90;;
73670;SDS011;61968;48.178;11.566;2022-12-07T15:47:51;7.40;;;3.97;;
73670;SDS011;61968;48.178;11.566;2022-12-07T15:50:20;8.50;;;4.53;;
73670;SDS011;61968;48.178;11.566;2022-12-07T15:52:47;12.45;;;5.07;;
73670;SDS011;61968;48.178;11.566;2022-12-07T15:55:15;8.40;;;4.45;;
73670;SDS011;61968;48.178;11.566;2022-12-07T15:57:42;6.60;;;3.40;;
73670;SDS011;61968;48.178;11.566;2022-12-07T16:00:09;9.80;;;4.75;;
73670;SDS011;61968;48.178;11.566;2022-12-07T16:02:37;11.82;;;5.25;;
73670;SDS011;61968;48.178;11.566;2022-12-07T16:05:04;8.07;;;3.97;;
73670;SDS011;61968;48.178;11.566;2022-12-07T16:07:31;6.75;;;3.58;;
73670;SDS011;61968;48.178;11.566;2022-12-07T16:12:25;7.85;;;4.00;;
73670;SDS011;61968;48.178;11.566;2022-12-07T16:14:52;8.90;;;3.97;;
73670;SDS011;61968;48.178;11.566;2022-12-07T16:17:18;8.63;;;4.40;;
73670;SDS011;61968;48.178;11.566;2022-12-07T16:22:11;7.40;;;3.67;;
73670;SDS011;61968;48.178;11.566;2022-12-07T16:27:04;14.57;;;6.45;;
73670;SDS011;61968;48.178;11.566;2022-12-07T16:29:32;16.40;;;4.68;;